createdAt,value
2022-11-14T00:00:34.915Z,17.15
2022-11-14T00:03:20.480Z,17.00
2022-11-14T00:06:06.767Z,16.98
2022-11-14T00:08:52.409Z,16.15
2022-11-14T00:11:38.085Z,17.27
2022-11-14T00:14:24.063Z,17.33
2022-11-14T00:17:12.334Z,18.42
2022-11-14T00:19:58.306Z,17.95
2022-11-14T00:22:44.036Z,17.52
2022-11-14T00:25:29.719Z,16.63
2022-11-14T00:28:15.322Z,17.45
2022-11-14T00:31:00.876Z,17.65
2022-11-14T00:33:46.501Z,17.20
2022-11-14T00:36:32.269Z,17.52
2022-11-14T00:39:17.910Z,19.90
2022-11-14T00:42:03.721Z,20.67
2022-11-14T00:44:49.430Z,21.80
2022-11-14T00:47:35.224Z,21.27
2022-11-14T00:50:21.264Z,22.33
2022-11-14T00:53:07.123Z,22.85
2022-11-14T00:55:52.866Z,25.05
2022-11-14T00:58:38.486Z,26.10
2022-11-14T01:01:26.789Z,23.45
2022-11-14T01:04:12.573Z,23.67
2022-11-14T01:06:58.315Z,23.17
2022-11-14T01:09:43.786Z,24.38
2022-11-14T01:12:29.549Z,24.65
2022-11-14T01:15:14.984Z,25.08
2022-11-14T01:18:00.671Z,25.17
2022-11-14T01:20:46.264Z,26.52
2022-11-14T01:23:31.957Z,26.73
2022-11-14T01:26:17.742Z,28.83
2022-11-14T01:29:03.410Z,26.77
2022-11-14T01:31:48.983Z,28.88
2022-11-14T01:34:34.535Z,28.67
2022-11-14T01:37:20.379Z,27.23
2022-11-14T01:40:06.125Z,27.00
2022-11-14T01:42:51.831Z,27.63
2022-11-14T01:45:37.622Z,27.77
2022-11-14T01:48:23.238Z,29.63
2022-11-14T01:51:08.904Z,31.13
2022-11-14T01:53:54.609Z,31.02
2022-11-14T01:56:40.160Z,31.25
2022-11-14T01:59:25.923Z,34.50
2022-11-14T02:02:11.540Z,38.97
2022-11-14T02:04:57.308Z,37.80
2022-11-14T02:07:43.089Z,38.83
2022-11-14T02:10:28.689Z,39.70
2022-11-14T02:13:14.283Z,39.58
2022-11-14T02:15:59.917Z,40.20
2022-11-14T02:18:45.613Z,42.13
2022-11-14T02:21:31.234Z,40.25
2022-11-14T02:24:17.042Z,39.72
2022-11-14T02:27:02.866Z,37.90
2022-11-14T02:29:48.723Z,39.55
2022-11-14T02:32:56.982Z,42.85
2022-11-14T02:38:26.837Z,36.65
2022-11-14T02:41:12.721Z,37.83
2022-11-14T02:43:58.473Z,35.60
2022-11-14T02:46:44.186Z,37.83
2022-11-14T02:49:29.861Z,42.55
2022-11-14T02:52:15.582Z,37.17
2022-11-14T02:55:01.192Z,36.92
2022-11-14T02:57:46.824Z,36.17
2022-11-14T03:00:32.617Z,37.53
2022-11-14T03:03:18.017Z,38.53
2022-11-14T03:06:03.683Z,37.50
2022-11-14T03:08:49.280Z,35.60
2022-11-14T03:11:34.965Z,34.30
2022-11-14T03:14:20.588Z,33.95
2022-11-14T03:17:06.115Z,36.80
2022-11-14T03:19:51.704Z,34.22
2022-11-14T03:22:37.278Z,35.40
2022-11-14T03:25:23.020Z,31.00
2022-11-14T03:28:08.596Z,29.85
2022-11-14T03:30:54.177Z,31.42
2022-11-14T03:33:39.841Z,30.35
2022-11-14T03:36:25.475Z,33.30
2022-11-14T03:39:11.158Z,32.45
2022-11-14T03:41:56.856Z,31.15
2022-11-14T03:44:42.456Z,28.88
2022-11-14T03:47:28.151Z,32.08
2022-11-14T03:50:13.823Z,29.88
2022-11-14T03:52:59.502Z,29.13
2022-11-14T03:55:45.300Z,28.45
2022-11-14T03:58:31.058Z,29.85
2022-11-14T04:01:17.074Z,28.25
2022-11-14T04:04:03.205Z,28.05
2022-11-14T04:06:48.778Z,26.55
2022-11-14T04:09:34.387Z,24.13
2022-11-14T04:12:20.046Z,23.55
2022-11-14T04:15:05.731Z,25.85
2022-11-14T04:17:51.403Z,22.33
2022-11-14T04:20:36.974Z,23.77
2022-11-14T04:23:22.625Z,21.70
2022-11-14T04:26:08.225Z,21.88
2022-11-14T04:28:53.807Z,21.55
2022-11-14T04:31:39.583Z,19.33
2022-11-14T04:34:25.042Z,20.15
2022-11-14T04:37:10.735Z,19.23
2022-11-14T04:40:00.748Z,18.70
2022-11-14T04:42:46.250Z,18.08
2022-11-14T04:45:32.077Z,17.30
2022-11-14T04:48:17.618Z,16.00
2022-11-14T04:51:03.322Z,14.52
2022-11-14T04:53:49.121Z,13.35
2022-11-14T04:56:34.800Z,14.00
2022-11-14T04:59:21.289Z,14.60
2022-11-14T05:02:07.176Z,14.32
2022-11-14T05:04:52.903Z,12.98
2022-11-14T05:07:38.859Z,13.23
2022-11-14T05:10:24.414Z,12.73
2022-11-14T05:13:10.092Z,12.95
2022-11-14T05:15:55.706Z,14.23
2022-11-14T05:18:46.738Z,12.77
2022-11-14T05:21:32.574Z,12.57
2022-11-14T05:24:19.360Z,12.30
2022-11-14T05:27:04.930Z,11.50
2022-11-14T05:29:50.747Z,12.00
2022-11-14T05:32:36.377Z,11.93
2022-11-14T05:35:21.905Z,13.05
2022-11-14T05:38:07.576Z,11.95
2022-11-14T05:40:53.315Z,11.20
2022-11-14T05:43:38.766Z,11.65
2022-11-14T05:46:24.386Z,12.13
2022-11-14T05:49:09.962Z,11.07
2022-11-14T05:51:55.670Z,11.60
2022-11-14T05:54:41.247Z,11.88
2022-11-14T05:57:26.850Z,10.75
2022-11-14T06:00:12.545Z,11.18
2022-11-14T06:02:58.234Z,10.60
2022-11-14T06:05:43.855Z,10.88
2022-11-14T06:08:29.983Z,11.73
2022-11-14T06:11:16.238Z,10.88
2022-11-14T06:14:03.157Z,10.00
2022-11-14T06:16:51.651Z,10.57
2022-11-14T06:19:37.273Z,12.57
2022-11-14T06:22:23.057Z,13.70
2022-11-14T06:25:08.611Z,14.13
2022-11-14T06:27:54.307Z,13.10
2022-11-14T06:30:41.440Z,11.52
2022-11-14T06:33:27.071Z,12.75
2022-11-14T06:36:12.704Z,13.38
2022-11-14T06:38:58.311Z,11.88
2022-11-14T06:41:43.982Z,12.73
2022-11-14T06:44:31.283Z,13.00
2022-11-14T06:47:16.954Z,11.07
2022-11-14T06:50:02.771Z,11.48
2022-11-14T06:52:48.292Z,12.02
2022-11-14T06:55:33.868Z,11.32
2022-11-14T06:58:19.734Z,11.50
2022-11-14T07:01:05.399Z,11.43
2022-11-14T07:03:51.089Z,10.55
2022-11-14T07:06:36.848Z,11.35
2022-11-14T07:09:22.492Z,9.55
2022-11-14T07:12:08.643Z,9.75
2022-11-14T07:14:54.365Z,9.88
2022-11-14T07:17:40.022Z,10.55
2022-11-14T07:20:25.825Z,10.90
2022-11-14T07:23:11.405Z,10.70
2022-11-14T07:25:57.123Z,10.48
2022-11-14T07:28:42.687Z,11.70
2022-11-14T07:31:28.396Z,11.40
2022-11-14T07:34:14.182Z,12.77
2022-11-14T07:36:59.713Z,11.13
2022-11-14T07:39:46.125Z,12.20
2022-11-14T07:42:32.052Z,12.00
2022-11-14T07:45:17.727Z,13.20
2022-11-14T07:48:03.545Z,12.13
2022-11-14T07:50:49.071Z,13.45
2022-11-14T07:53:34.851Z,11.93
2022-11-14T07:56:20.466Z,12.95
2022-11-14T07:59:06.092Z,12.38
2022-11-14T08:01:51.728Z,13.52
2022-11-14T08:04:37.394Z,12.32
2022-11-14T08:07:23.252Z,14.40
2022-11-14T08:10:11.349Z,15.23
2022-11-14T08:13:17.520Z,14.57
2022-11-14T08:18:48.268Z,14.43
2022-11-14T08:21:33.944Z,13.98
2022-11-14T08:24:19.579Z,16.20
2022-11-14T08:27:05.194Z,18.48
2022-11-14T08:29:51.282Z,20.23
2022-11-14T08:32:36.986Z,19.45
2022-11-14T08:35:22.688Z,20.40
2022-11-14T08:38:08.347Z,20.75
2022-11-14T08:40:54.131Z,21.40
2022-11-14T08:43:39.665Z,19.90
2022-11-14T08:46:25.266Z,21.20
2022-11-14T08:49:10.917Z,21.05
2022-11-14T08:51:56.659Z,22.77
2022-11-14T08:54:42.763Z,21.50
2022-11-14T08:57:28.295Z,21.20
2022-11-14T09:00:13.954Z,20.67
2022-11-14T09:02:59.628Z,21.13
2022-11-14T09:05:45.301Z,19.23
2022-11-14T09:08:31.312Z,17.05
2022-11-14T09:11:19.279Z,16.70
2022-11-14T09:14:05.372Z,15.77
2022-11-14T09:16:50.976Z,16.75
2022-11-14T09:19:36.480Z,15.50
2022-11-14T09:22:22.162Z,15.43
2022-11-14T09:25:07.878Z,16.15
2022-11-14T09:27:53.462Z,16.95
2022-11-14T09:30:41.048Z,17.55
2022-11-14T09:33:27.260Z,15.50
2022-11-14T09:36:15.890Z,16.23
2022-11-14T09:39:02.138Z,16.13
2022-11-14T09:41:47.727Z,17.05
2022-11-14T09:44:33.486Z,17.20
2022-11-14T09:47:21.321Z,17.80
2022-11-14T09:50:06.782Z,16.90
2022-11-14T09:52:52.419Z,18.63
2022-11-14T09:55:38.143Z,17.40
2022-11-14T09:58:23.720Z,17.92
2022-11-14T10:01:09.922Z,18.77
2022-11-14T10:03:55.438Z,21.10
2022-11-14T10:06:41.188Z,18.60
2022-11-14T10:09:30.415Z,20.05
2022-11-14T10:12:16.708Z,20.23
2022-11-14T10:15:02.405Z,17.35
2022-11-14T10:17:48.280Z,18.10
2022-11-14T10:20:34.097Z,18.00
2022-11-14T10:23:20.234Z,15.65
2022-11-14T10:26:05.894Z,17.65
2022-11-14T10:28:51.504Z,15.50
2022-11-14T10:31:37.158Z,16.83
2022-11-14T10:34:22.786Z,16.48
2022-11-14T10:37:08.510Z,16.20
2022-11-14T10:39:54.296Z,17.20
2022-11-14T10:42:39.905Z,17.38
2022-11-14T10:45:25.543Z,16.83
2022-11-14T10:48:11.579Z,15.95
2022-11-14T10:50:57.269Z,17.70
2022-11-14T10:53:43.135Z,16.88
2022-11-14T10:56:28.893Z,15.23
2022-11-14T10:59:14.433Z,16.95
2022-11-14T11:02:00.046Z,15.90
2022-11-14T11:04:45.931Z,16.77
2022-11-14T11:07:50.969Z,16.13
2022-11-14T11:10:55.742Z,14.55
2022-11-14T11:13:41.470Z,15.32
2022-11-14T11:16:27.032Z,15.38
2022-11-14T11:19:12.714Z,15.15
2022-11-14T11:21:58.298Z,13.95
2022-11-14T11:24:43.937Z,14.25
2022-11-14T11:27:29.518Z,14.10
2022-11-14T11:30:15.210Z,13.70
2022-11-14T11:33:00.807Z,13.88
2022-11-14T11:35:46.522Z,14.55
2022-11-14T11:38:32.487Z,13.77
2022-11-14T11:41:33.348Z,13.95
2022-11-14T11:47:09.759Z,14.50
2022-11-14T11:49:55.257Z,13.32
2022-11-14T11:52:40.981Z,15.13
2022-11-14T11:55:26.618Z,13.85
2022-11-14T11:58:12.887Z,14.10
2022-11-14T12:00:58.819Z,17.05
2022-11-14T12:03:44.818Z,17.15
2022-11-14T12:06:30.236Z,17.25
2022-11-14T12:09:16.029Z,17.27
2022-11-14T12:12:01.568Z,17.60
2022-11-14T12:14:47.294Z,16.30
2022-11-14T12:17:33.028Z,16.00
2022-11-14T12:20:18.671Z,18.10
2022-11-14T12:23:04.384Z,15.45
2022-11-14T12:25:49.962Z,13.05
2022-11-14T12:28:35.505Z,12.23
2022-11-14T12:31:21.135Z,12.00
2022-11-14T12:34:06.672Z,10.82
2022-11-14T12:36:52.399Z,12.05
2022-11-14T12:39:38.552Z,11.98
2022-11-14T12:42:24.334Z,12.07
2022-11-14T12:45:10.036Z,12.73
2022-11-14T12:47:55.584Z,12.55
2022-11-14T12:50:41.263Z,13.60
2022-11-14T12:53:36.155Z,12.93
2022-11-14T12:56:22.051Z,13.73
2022-11-14T12:59:09.152Z,14.05
2022-11-14T13:01:56.250Z,14.25
2022-11-14T13:04:42.439Z,14.32
2022-11-14T13:07:33.842Z,14.63
2022-11-14T13:10:19.868Z,14.45
2022-11-14T13:13:24.272Z,15.18
2022-11-14T13:16:28.910Z,14.45
2022-11-14T13:19:33.720Z,15.32
2022-11-14T13:22:19.566Z,14.30
2022-11-14T13:25:05.287Z,14.95
2022-11-14T13:28:07.362Z,15.43
2022-11-14T13:30:54.761Z,15.05
2022-11-14T13:33:40.422Z,14.77
2022-11-14T13:36:26.014Z,14.95
2022-11-14T13:39:11.589Z,16.50
2022-11-14T13:41:57.320Z,15.57
2022-11-14T13:44:42.910Z,16.27
2022-11-14T13:47:28.550Z,15.93
2022-11-14T13:50:14.374Z,15.77
2022-11-14T13:53:00.019Z,15.27
2022-11-14T13:55:45.747Z,16.70
2022-11-14T13:58:31.444Z,16.13
2022-11-14T14:01:17.160Z,15.90
2022-11-14T14:04:02.724Z,16.50
2022-11-14T14:06:48.562Z,14.55
2022-11-14T14:09:34.251Z,16.70
2022-11-14T14:12:19.914Z,16.88
2022-11-14T14:15:05.707Z,16.77
2022-11-14T14:17:51.529Z,17.40
2022-11-14T14:20:37.088Z,16.42
2022-11-14T14:23:22.824Z,16.52
2022-11-14T14:26:08.537Z,15.65
2022-11-14T14:28:56.248Z,16.40
2022-11-14T14:31:42.310Z,17.42
2022-11-14T14:34:28.052Z,17.38
2022-11-14T14:37:13.584Z,16.15
2022-11-14T14:39:59.478Z,16.55
2022-11-14T14:42:45.117Z,15.10
2022-11-14T14:45:30.873Z,17.63
2022-11-14T14:48:16.534Z,18.25
2022-11-14T14:51:07.408Z,21.77
2022-11-14T14:53:53.397Z,23.35
2022-11-14T14:56:39.382Z,23.48
2022-11-14T14:59:24.939Z,22.45
2022-11-14T15:02:10.651Z,22.48
2022-11-14T15:04:56.365Z,22.77
2022-11-14T15:07:41.954Z,22.02
2022-11-14T15:10:29.744Z,19.52
2022-11-14T15:13:15.413Z,20.20
2022-11-14T15:16:02.682Z,19.15
2022-11-14T15:18:48.368Z,18.70
2022-11-14T15:21:33.869Z,20.48
2022-11-14T15:24:19.550Z,19.95
2022-11-14T15:27:05.559Z,18.40
2022-11-14T15:29:51.482Z,20.63
2022-11-14T15:32:37.178Z,20.08
2022-11-14T15:35:25.482Z,20.45
2022-11-14T15:38:41.859Z,21.05
2022-11-14T15:41:18.084Z,20.92
2022-11-14T15:44:03.794Z,20.30
2022-11-14T15:46:49.544Z,21.05
2022-11-14T15:49:36.264Z,22.73
2022-11-14T15:52:22.217Z,23.70
2022-11-14T15:55:07.854Z,23.23
2022-11-14T15:58:13.697Z,21.75
2022-11-14T16:00:59.389Z,23.27
2022-11-14T16:03:44.993Z,23.98
2022-11-14T16:06:30.584Z,23.52
2022-11-14T16:09:16.222Z,24.52
2022-11-14T16:12:01.920Z,23.55
2022-11-14T16:14:47.653Z,23.77
2022-11-14T16:17:33.268Z,23.80
2022-11-14T16:20:18.928Z,22.95
2022-11-14T16:23:05.080Z,25.02
2022-11-14T16:25:50.927Z,23.27
2022-11-14T16:28:36.620Z,26.63
2022-11-14T16:31:22.357Z,27.00
2022-11-14T16:34:08.153Z,28.08
2022-11-14T16:36:53.885Z,30.08
2022-11-14T16:39:39.575Z,29.23
2022-11-14T16:42:25.232Z,27.40
2022-11-14T16:45:10.872Z,28.42
2022-11-14T16:47:56.559Z,28.63
2022-11-14T16:50:42.271Z,27.77
2022-11-14T16:53:27.979Z,29.73
2022-11-14T16:56:13.906Z,27.55
2022-11-14T16:58:59.668Z,27.30
2022-11-14T17:01:46.769Z,26.75
2022-11-14T17:04:32.834Z,24.95
2022-11-14T17:07:22.774Z,25.63
2022-11-14T17:10:09.023Z,25.98
2022-11-14T17:12:54.705Z,25.00
2022-11-14T17:15:40.400Z,25.05
2022-11-14T17:18:26.039Z,25.75
2022-11-14T17:21:11.734Z,25.60
2022-11-14T17:23:57.231Z,24.38
2022-11-14T17:26:42.868Z,25.52
2022-11-14T17:29:28.555Z,25.50
2022-11-14T17:32:14.341Z,22.60
2022-11-14T17:35:00.100Z,23.17
2022-11-14T17:37:45.803Z,21.33
2022-11-14T17:40:31.457Z,21.73
2022-11-14T17:43:17.251Z,20.33
2022-11-14T17:46:02.754Z,21.90
2022-11-14T17:48:48.437Z,22.55
2022-11-14T17:51:33.916Z,21.63
2022-11-14T17:54:19.729Z,21.55
2022-11-14T17:57:05.398Z,22.27
2022-11-14T17:59:51.053Z,21.90
2022-11-14T18:02:36.559Z,21.58
2022-11-14T18:05:22.267Z,22.23
2022-11-14T18:08:07.864Z,21.70
2022-11-14T18:10:54.276Z,21.98
2022-11-14T18:13:39.860Z,22.40
2022-11-14T18:16:28.637Z,22.02
2022-11-14T18:19:20.730Z,21.13
2022-11-14T18:22:06.662Z,20.30
2022-11-14T18:24:52.342Z,19.50
2022-11-14T18:27:38.227Z,17.92
2022-11-14T18:36:15.043Z,15.85
2022-11-14T18:39:00.674Z,15.30
2022-11-14T18:41:46.228Z,15.10
2022-11-14T18:44:31.948Z,15.90
2022-11-14T18:47:17.698Z,15.10
2022-11-14T18:50:03.944Z,15.70
2022-11-14T18:52:49.706Z,15.48
2022-11-14T18:55:35.307Z,15.15
2022-11-14T18:58:20.988Z,14.30
2022-11-14T19:01:06.725Z,14.52
2022-11-14T19:03:52.401Z,15.68
2022-11-14T19:06:38.087Z,15.60
2022-11-14T19:09:23.755Z,14.13
2022-11-14T19:12:18.761Z,13.40
2022-11-14T19:15:04.615Z,14.13
2022-11-14T19:17:50.306Z,16.17
2022-11-14T19:20:36.092Z,16.60
2022-11-14T19:23:21.730Z,16.02
2022-11-14T19:26:07.347Z,16.75
2022-11-14T19:28:52.919Z,16.67
2022-11-14T19:31:38.648Z,15.32
2022-11-14T19:34:24.309Z,17.23
2022-11-14T19:37:09.977Z,15.98
2022-11-14T19:39:56.571Z,13.65
2022-11-14T19:42:42.335Z,13.60
2022-11-14T19:45:28.105Z,14.02
2022-11-14T19:48:13.752Z,13.13
2022-11-14T19:50:59.501Z,11.00
2022-11-14T19:53:48.602Z,11.60
2022-11-14T19:56:34.170Z,9.82
2022-11-14T19:59:24.143Z,10.75
2022-11-14T20:02:10.502Z,10.32
2022-11-14T20:04:56.113Z,11.02
2022-11-14T20:07:41.649Z,9.82
2022-11-14T20:10:27.348Z,10.55
2022-11-14T20:13:12.932Z,10.38
2022-11-14T20:15:58.627Z,9.88
2022-11-14T20:18:45.729Z,8.48
2022-11-14T20:21:31.313Z,7.15
2022-11-14T20:24:21.489Z,7.97
2022-11-14T20:27:07.237Z,6.32
2022-11-14T20:29:52.978Z,6.47
2022-11-14T20:32:38.556Z,5.95
2022-11-14T20:35:24.217Z,6.07
2022-11-14T20:38:09.744Z,6.38
2022-11-14T20:40:55.584Z,6.82
2022-11-14T20:43:49.262Z,6.20
2022-11-14T20:46:36.455Z,6.57
2022-11-14T20:49:22.291Z,7.43
2022-11-14T20:52:07.987Z,6.82
2022-11-14T20:54:53.967Z,7.25
2022-11-14T20:57:39.603Z,6.50
2022-11-14T21:00:25.297Z,6.55
2022-11-14T21:03:11.006Z,5.90
2022-11-14T21:05:56.731Z,4.88
2022-11-14T21:08:42.416Z,4.35
2022-11-14T21:11:28.147Z,3.17
2022-11-14T21:14:13.868Z,2.17
2022-11-14T21:16:59.417Z,2.13
2022-11-14T21:19:45.046Z,2.90
2022-11-14T21:22:30.608Z,2.00
2022-11-14T21:25:16.338Z,1.90
2022-11-14T21:28:02.043Z,2.13
2022-11-14T21:30:47.551Z,1.60
2022-11-14T21:33:33.604Z,1.75
2022-11-14T21:42:14.284Z,1.42
2022-11-14T21:45:04.038Z,1.55
2022-11-14T21:47:49.801Z,1.33
2022-11-14T21:50:35.430Z,1.65
2022-11-14T21:53:21.218Z,1.35
2022-11-14T21:56:06.777Z,1.60
2022-11-14T21:59:12.265Z,1.60
2022-11-14T22:02:16.976Z,1.90
2022-11-14T22:05:03.074Z,1.45
2022-11-14T22:07:48.714Z,1.98
2022-11-14T22:10:34.307Z,1.50
2022-11-14T22:13:19.872Z,1.30
2022-11-14T22:16:05.597Z,1.42
2022-11-14T22:18:51.314Z,1.45
2022-11-14T22:21:36.926Z,1.02
2022-11-14T22:24:22.690Z,1.27
2022-11-14T22:27:08.780Z,1.38
2022-11-14T22:29:54.313Z,1.77
2022-11-14T22:32:40.136Z,1.58
2022-11-14T22:35:25.656Z,1.35
2022-11-14T22:38:11.527Z,2.10
2022-11-14T22:40:57.431Z,1.48
2022-11-14T22:43:43.015Z,1.00
2022-11-14T22:46:28.583Z,1.13
2022-11-14T22:49:18.408Z,1.88
2022-11-14T22:52:06.433Z,1.95
2022-11-14T22:54:52.095Z,2.05
2022-11-14T22:57:37.709Z,1.13
2022-11-14T23:00:23.337Z,1.45
2022-11-14T23:03:09.185Z,1.20
2022-11-14T23:05:54.754Z,1.13
2022-11-14T23:08:40.480Z,1.02
2022-11-14T23:11:26.208Z,1.45
2022-11-14T23:14:11.801Z,1.33
2022-11-14T23:16:57.597Z,1.60
2022-11-14T23:19:43.399Z,1.92
2022-11-14T23:22:29.045Z,1.50
2022-11-14T23:25:14.743Z,3.40
2022-11-14T23:28:00.342Z,1.75
2022-11-14T23:30:46.189Z,1.23
2022-11-14T23:33:32.034Z,1.75
2022-11-14T23:36:17.886Z,1.30
2022-11-14T23:39:03.436Z,1.80
2022-11-14T23:41:49.486Z,1.60
2022-11-14T23:44:35.152Z,2.17
2022-11-14T23:47:20.897Z,1.30
2022-11-14T23:50:06.399Z,1.75
2022-11-14T23:52:52.048Z,1.35
2022-11-14T23:55:37.760Z,1.98
2022-11-14T23:58:23.289Z,1.40
